Terminal Aerodrome Forecast
Issued by NWS

Home | Current Version | Previous Version | Graphics & Text | Print | Product List | Glossary On
Versions: 1 2 3 4 5 6 7 8 9 10 11 12
853
FTUS43 KMPX 281746
TAFRWF
TAF
KRWF 281746Z 2818/2918 25016G25KT P6SM BKN150
     FM282000 28020G27KT P6SM BKN060
     FM290100 29006KT P6SM SKC
     FM291400 35008KT P6SM SCT250=

USA.gov is the U.S. government's official web portal to all federal, state and local government web resources and services.